sensor_id;sensor_type;location;lat;lon;timestamp;temperature;humidity
2721;DHT22;1368;49.484;11.112;2023-07-31T00:00:34;18.10;99.90
2721;DHT22;1368;49.484;11.112;2023-07-31T00:02:59;18.20;99.90
2721;DHT22;1368;49.484;11.112;2023-07-31T00:05:25;18.20;99.90
2721;DHT22;1368;49.484;11.112;2023-07-31T00:07:51;18.20;99.90
2721;DHT22;1368;49.484;11.112;2023-07-31T00:10:16;18.30;99.90
2721;DHT22;1368;49.484;11.112;2023-07-31T00:12:43;18.20;99.90
2721;DHT22;1368;49.484;11.112;2023-07-31T00:15:09;18.20;99.90
2721;DHT22;1368;49.484;11.112;2023-07-31T00:17:35;18.20;99.90
2721;DHT22;1368;49.484;11.112;2023-07-31T00:20:01;18.20;99.90
2721;DHT22;1368;49.484;11.112;2023-07-31T00:22:26;18.50;99.90
2721;DHT22;1368;49.484;11.112;2023-07-31T00:24:52;18.60;99.90
2721;DHT22;1368;49.484;11.112;2023-07-31T00:27:17;18.10;99.90
2721;DHT22;1368;49.484;11.112;2023-07-31T00:29:43;18.10;99.90
2721;DHT22;1368;49.484;11.112;2023-07-31T00:32:08;18.00;99.90
2721;DHT22;1368;49.484;11.112;2023-07-31T00:34:34;18.00;99.90
2721;DHT22;1368;49.484;11.112;2023-07-31T00:37:00;18.60;99.90
2721;DHT22;1368;49.484;11.112;2023-07-31T00:39:25;18.00;99.90
2721;DHT22;1368;49.484;11.112;2023-07-31T00:41:51;18.10;99.90
2721;DHT22;1368;49.484;11.112;2023-07-31T00:44:16;18.20;99.90
2721;DHT22;1368;49.484;11.112;2023-07-31T00:46:42;18.10;99.90
2721;DHT22;1368;49.484;11.112;2023-07-31T00:49:07;18.70;99.90
2721;DHT22;1368;49.484;11.112;2023-07-31T00:51:34;18.10;99.90
2721;DHT22;1368;49.484;11.112;2023-07-31T00:53:59;18.20;99.90
2721;DHT22;1368;49.484;11.112;2023-07-31T00:56:26;18.00;99.90
2721;DHT22;1368;49.484;11.112;2023-07-31T00:58:53;18.30;99.90
2721;DHT22;1368;49.484;11.112;2023-07-31T01:01:18;18.50;99.90
2721;DHT22;1368;49.484;11.112;2023-07-31T01:03:44;18.70;99.90
2721;DHT22;1368;49.484;11.112;2023-07-31T01:06:19;18.50;99.90
2721;DHT22;1368;49.484;11.112;2023-07-31T01:11:34;18.20;99.90
2721;DHT22;1368;49.484;11.112;2023-07-31T01:14:04;18.40;99.90
2721;DHT22;1368;49.484;11.112;2023-07-31T01:16:29;18.30;99.90
2721;DHT22;1368;49.484;11.112;2023-07-31T01:18:55;18.50;99.90
2721;DHT22;1368;49.484;11.112;2023-07-31T01:26:33;19.00;99.90
2721;DHT22;1368;49.484;11.112;2023-07-31T01:31:25;18.80;99.90
2721;DHT22;1368;49.484;11.112;2023-07-31T01:33:54;18.80;99.90
2721;DHT22;1368;49.484;11.112;2023-07-31T01:36:20;18.80;99.90
2721;DHT22;1368;49.484;11.112;2023-07-31T01:38:46;18.90;99.90
2721;DHT22;1368;49.484;11.112;2023-07-31T01:41:12;19.00;99.90
2721;DHT22;1368;49.484;11.112;2023-07-31T01:43:38;19.00;99.90
2721;DHT22;1368;49.484;11.112;2023-07-31T01:46:04;18.90;99.90
2721;DHT22;1368;49.484;11.112;2023-07-31T01:48:29;19.10;99.90
2721;DHT22;1368;49.484;11.112;2023-07-31T01:51:00;19.40;99.90
2721;DHT22;1368;49.484;11.112;2023-07-31T01:53:26;19.20;99.90
2721;DHT22;1368;49.484;11.112;2023-07-31T01:55:52;19.10;99.90
2721;DHT22;1368;49.484;11.112;2023-07-31T01:58:17;19.20;99.90
2721;DHT22;1368;49.484;11.112;2023-07-31T02:00:43;19.20;99.90
2721;DHT22;1368;49.484;11.112;2023-07-31T02:03:08;19.20;99.90
2721;DHT22;1368;49.484;11.112;2023-07-31T02:05:34;19.10;99.90
2721;DHT22;1368;49.484;11.112;2023-07-31T02:07:59;19.40;99.90
2721;DHT22;1368;49.484;11.112;2023-07-31T02:10:25;19.00;99.90
2721;DHT22;1368;49.484;11.112;2023-07-31T02:12:50;19.00;99.90
2721;DHT22;1368;49.484;11.112;2023-07-31T02:15:16;18.70;99.90
2721;DHT22;1368;49.484;11.112;2023-07-31T02:17:41;18.90;99.90
2721;DHT22;1368;49.484;11.112;2023-07-31T02:20:07;18.90;99.90
2721;DHT22;1368;49.484;11.112;2023-07-31T02:22:33;18.60;99.90
2721;DHT22;1368;49.484;11.112;2023-07-31T02:24:58;18.70;99.90
2721;DHT22;1368;49.484;11.112;2023-07-31T02:27:24;18.80;99.90
2721;DHT22;1368;49.484;11.112;2023-07-31T02:29:52;19.00;99.90
2721;DHT22;1368;49.484;11.112;2023-07-31T02:32:18;18.90;99.90
2721;DHT22;1368;49.484;11.112;2023-07-31T02:34:43;18.70;99.90
2721;DHT22;1368;49.484;11.112;2023-07-31T02:37:09;19.00;99.90
2721;DHT22;1368;49.484;11.112;2023-07-31T02:39:35;18.60;99.90
2721;DHT22;1368;49.484;11.112;2023-07-31T02:42:00;18.70;99.90
2721;DHT22;1368;49.484;11.112;2023-07-31T02:44:26;18.60;99.90
2721;DHT22;1368;49.484;11.112;2023-07-31T02:46:52;18.80;99.90
2721;DHT22;1368;49.484;11.112;2023-07-31T02:49:17;18.20;99.90
2721;DHT22;1368;49.484;11.112;2023-07-31T02:51:43;18.40;99.90
2721;DHT22;1368;49.484;11.112;2023-07-31T02:54:08;18.10;99.90
2721;DHT22;1368;49.484;11.112;2023-07-31T02:56:34;17.80;99.90
2721;DHT22;1368;49.484;11.112;2023-07-31T02:58:59;17.60;99.90
2721;DHT22;1368;49.484;11.112;2023-07-31T03:01:25;17.50;99.90
2721;DHT22;1368;49.484;11.112;2023-07-31T03:03:51;17.60;99.90
2721;DHT22;1368;49.484;11.112;2023-07-31T03:06:16;17.80;99.90
2721;DHT22;1368;49.484;11.112;2023-07-31T03:08:42;17.80;99.90
2721;DHT22;1368;49.484;11.112;2023-07-31T03:11:07;17.80;99.90
2721;DHT22;1368;49.484;11.112;2023-07-31T03:13:33;17.60;99.90
2721;DHT22;1368;49.484;11.112;2023-07-31T03:15:58;17.40;99.90
2721;DHT22;1368;49.484;11.112;2023-07-31T03:18:24;17.40;99.90
2721;DHT22;1368;49.484;11.112;2023-07-31T03:20:49;17.70;99.90
2721;DHT22;1368;49.484;11.112;2023-07-31T03:23:15;17.20;99.90
2721;DHT22;1368;49.484;11.112;2023-07-31T03:25:58;17.10;99.90
2721;DHT22;1368;49.484;11.112;2023-07-31T03:28:24;17.30;99.90
2721;DHT22;1368;49.484;11.112;2023-07-31T03:30:50;17.10;99.90
2721;DHT22;1368;49.484;11.112;2023-07-31T03:33:16;16.90;99.90
2721;DHT22;1368;49.484;11.112;2023-07-31T03:35:41;17.40;99.90
2721;DHT22;1368;49.484;11.112;2023-07-31T03:38:07;17.10;99.90
2721;DHT22;1368;49.484;11.112;2023-07-31T03:40:32;17.30;99.90
2721;DHT22;1368;49.484;11.112;2023-07-31T03:42:58;17.30;99.90
2721;DHT22;1368;49.484;11.112;2023-07-31T03:45:23;17.70;99.90
2721;DHT22;1368;49.484;11.112;2023-07-31T03:47:49;17.20;99.90
2721;DHT22;1368;49.484;11.112;2023-07-31T03:50:15;17.60;99.90
2721;DHT22;1368;49.484;11.112;2023-07-31T03:52:41;17.20;99.90
2721;DHT22;1368;49.484;11.112;2023-07-31T03:55:07;17.10;99.90
2721;DHT22;1368;49.484;11.112;2023-07-31T03:57:32;17.30;99.90
2721;DHT22;1368;49.484;11.112;2023-07-31T03:59:58;17.50;99.90
2721;DHT22;1368;49.484;11.112;2023-07-31T04:02:24;17.30;99.90
2721;DHT22;1368;49.484;11.112;2023-07-31T04:04:49;17.60;99.90
2721;DHT22;1368;49.484;11.112;2023-07-31T04:07:15;17.60;99.90
2721;DHT22;1368;49.484;11.112;2023-07-31T04:09:40;17.80;99.90
2721;DHT22;1368;49.484;11.112;2023-07-31T04:12:06;17.90;99.90
2721;DHT22;1368;49.484;11.112;2023-07-31T04:14:32;17.60;99.90
2721;DHT22;1368;49.484;11.112;2023-07-31T04:16:57;17.80;99.90
2721;DHT22;1368;49.484;11.112;2023-07-31T04:19:23;17.80;99.90
2721;DHT22;1368;49.484;11.112;2023-07-31T04:21:49;17.30;99.90
2721;DHT22;1368;49.484;11.112;2023-07-31T04:24:14;17.50;99.90
2721;DHT22;1368;49.484;11.112;2023-07-31T04:26:40;17.30;99.90
2721;DHT22;1368;49.484;11.112;2023-07-31T04:29:06;17.40;99.90
2721;DHT22;1368;49.484;11.112;2023-07-31T04:31:31;17.50;99.90
2721;DHT22;1368;49.484;11.112;2023-07-31T04:33:57;17.40;99.90
2721;DHT22;1368;49.484;11.112;2023-07-31T04:36:22;17.80;99.90
2721;DHT22;1368;49.484;11.112;2023-07-31T04:38:48;17.30;99.90
2721;DHT22;1368;49.484;11.112;2023-07-31T04:41:14;17.90;99.90
2721;DHT22;1368;49.484;11.112;2023-07-31T04:43:39;17.70;99.90
2721;DHT22;1368;49.484;11.112;2023-07-31T04:46:06;18.00;99.90
2721;DHT22;1368;49.484;11.112;2023-07-31T04:48:31;17.60;99.90
2721;DHT22;1368;49.484;11.112;2023-07-31T04:50:57;17.80;99.90
2721;DHT22;1368;49.484;11.112;2023-07-31T04:53:23;18.00;99.90
2721;DHT22;1368;49.484;11.112;2023-07-31T04:55:48;18.10;99.90
2721;DHT22;1368;49.484;11.112;2023-07-31T04:58:14;18.20;99.90
2721;DHT22;1368;49.484;11.112;2023-07-31T05:00:39;18.10;99.90
2721;DHT22;1368;49.484;11.112;2023-07-31T05:03:05;18.20;99.90
2721;DHT22;1368;49.484;11.112;2023-07-31T05:05:30;18.50;99.90
2721;DHT22;1368;49.484;11.112;2023-07-31T05:07:56;18.10;99.90
2721;DHT22;1368;49.484;11.112;2023-07-31T05:10:21;18.10;99.90
2721;DHT22;1368;49.484;11.112;2023-07-31T05:12:47;17.90;99.90
2721;DHT22;1368;49.484;11.112;2023-07-31T05:15:12;17.90;99.90
2721;DHT22;1368;49.484;11.112;2023-07-31T05:17:38;17.70;99.90
2721;DHT22;1368;49.484;11.112;2023-07-31T05:20:04;17.60;99.90
2721;DHT22;1368;49.484;11.112;2023-07-31T05:22:29;17.70;99.90
2721;DHT22;1368;49.484;11.112;2023-07-31T05:24:55;18.10;99.90
2721;DHT22;1368;49.484;11.112;2023-07-31T05:27:21;18.60;99.90
2721;DHT22;1368;49.484;11.112;2023-07-31T05:29:46;18.40;99.90
2721;DHT22;1368;49.484;11.112;2023-07-31T05:32:12;18.70;99.90
2721;DHT22;1368;49.484;11.112;2023-07-31T05:34:37;18.50;99.90
2721;DHT22;1368;49.484;11.112;2023-07-31T05:37:03;18.70;99.90
2721;DHT22;1368;49.484;11.112;2023-07-31T05:39:29;18.80;99.90
2721;DHT22;1368;49.484;11.112;2023-07-31T05:41:54;19.20;99.90
2721;DHT22;1368;49.484;11.112;2023-07-31T05:44:20;19.30;99.90
2721;DHT22;1368;49.484;11.112;2023-07-31T05:46:45;19.50;99.90
2721;DHT22;1368;49.484;11.112;2023-07-31T05:49:11;19.70;99.90
2721;DHT22;1368;49.484;11.112;2023-07-31T05:51:36;20.20;99.90
2721;DHT22;1368;49.484;11.112;2023-07-31T05:54:02;19.90;99.90
2721;DHT22;1368;49.484;11.112;2023-07-31T05:56:27;19.90;99.90
2721;DHT22;1368;49.484;11.112;2023-07-31T05:58:53;19.80;99.90
2721;DHT22;1368;49.484;11.112;2023-07-31T06:01:18;19.60;99.90
2721;DHT22;1368;49.484;11.112;2023-07-31T06:03:44;19.70;99.90
2721;DHT22;1368;49.484;11.112;2023-07-31T06:06:10;19.90;99.90
2721;DHT22;1368;49.484;11.112;2023-07-31T06:08:36;20.10;99.90
2721;DHT22;1368;49.484;11.112;2023-07-31T06:11:01;20.10;99.90
2721;DHT22;1368;49.484;11.112;2023-07-31T06:13:27;19.90;99.90
2721;DHT22;1368;49.484;11.112;2023-07-31T06:15:53;19.60;99.90
2721;DHT22;1368;49.484;11.112;2023-07-31T06:18:18;19.70;99.90
2721;DHT22;1368;49.484;11.112;2023-07-31T06:20:44;19.80;99.90
2721;DHT22;1368;49.484;11.112;2023-07-31T06:23:09;20.00;99.90
2721;DHT22;1368;49.484;11.112;2023-07-31T06:25:35;20.30;99.90
2721;DHT22;1368;49.484;11.112;2023-07-31T06:28:00;20.60;99.90
2721;DHT22;1368;49.484;11.112;2023-07-31T06:30:26;20.70;99.90
2721;DHT22;1368;49.484;11.112;2023-07-31T06:32:51;20.50;99.90
2721;DHT22;1368;49.484;11.112;2023-07-31T06:35:17;20.70;99.90
2721;DHT22;1368;49.484;11.112;2023-07-31T06:37:43;21.10;99.90
2721;DHT22;1368;49.484;11.112;2023-07-31T06:40:10;21.70;99.90
2721;DHT22;1368;49.484;11.112;2023-07-31T06:42:35;22.00;99.90
2721;DHT22;1368;49.484;11.112;2023-07-31T06:45:02;22.10;99.90
2721;DHT22;1368;49.484;11.112;2023-07-31T06:47:27;22.30;99.90
2721;DHT22;1368;49.484;11.112;2023-07-31T06:49:53;22.20;99.90
2721;DHT22;1368;49.484;11.112;2023-07-31T06:52:18;21.60;99.90
2721;DHT22;1368;49.484;11.112;2023-07-31T06:54:44;21.30;99.90
2721;DHT22;1368;49.484;11.112;2023-07-31T06:57:10;21.40;99.90
2721;DHT22;1368;49.484;11.112;2023-07-31T06:59:35;21.70;99.90
2721;DHT22;1368;49.484;11.112;2023-07-31T07:02:01;21.80;99.90
2721;DHT22;1368;49.484;11.112;2023-07-31T07:04:26;22.00;99.90
2721;DHT22;1368;49.484;11.112;2023-07-31T07:06:52;22.20;99.90
2721;DHT22;1368;49.484;11.112;2023-07-31T07:09:17;22.50;99.90
2721;DHT22;1368;49.484;11.112;2023-07-31T07:11:43;22.80;99.90
2721;DHT22;1368;49.484;11.112;2023-07-31T07:14:09;22.90;99.90
2721;DHT22;1368;49.484;11.112;2023-07-31T07:16:35;22.80;99.90
2721;DHT22;1368;49.484;11.112;2023-07-31T07:19:00;23.00;99.90
2721;DHT22;1368;49.484;11.112;2023-07-31T07:21:26;23.10;99.90
2721;DHT22;1368;49.484;11.112;2023-07-31T07:23:52;23.10;99.90
2721;DHT22;1368;49.484;11.112;2023-07-31T07:26:17;22.90;99.90
2721;DHT22;1368;49.484;11.112;2023-07-31T07:28:43;23.00;99.90
2721;DHT22;1368;49.484;11.112;2023-07-31T07:31:08;23.50;99.90
2721;DHT22;1368;49.484;11.112;2023-07-31T07:33:34;23.40;99.90
2721;DHT22;1368;49.484;11.112;2023-07-31T07:36:02;24.00;99.90
2721;DHT22;1368;49.484;11.112;2023-07-31T07:38:28;23.60;99.90
2721;DHT22;1368;49.484;11.112;2023-07-31T07:40:54;23.60;99.90
2721;DHT22;1368;49.484;11.112;2023-07-31T07:43:19;23.50;99.90
2721;DHT22;1368;49.484;11.112;2023-07-31T07:45:45;23.60;99.90
2721;DHT22;1368;49.484;11.112;2023-07-31T07:48:10;23.50;99.90
2721;DHT22;1368;49.484;11.112;2023-07-31T07:50:38;23.30;99.90
2721;DHT22;1368;49.484;11.112;2023-07-31T07:53:03;22.90;99.90
2721;DHT22;1368;49.484;11.112;2023-07-31T07:55:29;23.10;99.90
2721;DHT22;1368;49.484;11.112;2023-07-31T07:57:54;23.00;99.90
2721;DHT22;1368;49.484;11.112;2023-07-31T08:00:20;23.00;99.90
2721;DHT22;1368;49.484;11.112;2023-07-31T08:02:46;22.80;99.90
2721;DHT22;1368;49.484;11.112;2023-07-31T08:05:11;22.80;99.90
2721;DHT22;1368;49.484;11.112;2023-07-31T08:07:37;23.10;99.90
2721;DHT22;1368;49.484;11.112;2023-07-31T08:10:02;23.60;99.90
2721;DHT22;1368;49.484;11.112;2023-07-31T08:12:28;24.20;99.90
2721;DHT22;1368;49.484;11.112;2023-07-31T08:14:54;24.50;99.90
2721;DHT22;1368;49.484;11.112;2023-07-31T08:17:19;24.90;99.90
2721;DHT22;1368;49.484;11.112;2023-07-31T08:19:45;24.80;99.90
2721;DHT22;1368;49.484;11.112;2023-07-31T08:22:11;25.40;99.90
2721;DHT22;1368;49.484;11.112;2023-07-31T08:24:37;26.30;99.70
2721;DHT22;1368;49.484;11.112;2023-07-31T08:27:02;26.70;98.60
2721;DHT22;1368;49.484;11.112;2023-07-31T08:29:28;26.10;97.70
2721;DHT22;1368;49.484;11.112;2023-07-31T08:31:53;26.10;97.70
2721;DHT22;1368;49.484;11.112;2023-07-31T08:34:19;26.40;97.10
2721;DHT22;1368;49.484;11.112;2023-07-31T08:36:44;26.50;96.80
2721;DHT22;1368;49.484;11.112;2023-07-31T08:39:10;26.90;96.60
2721;DHT22;1368;49.484;11.112;2023-07-31T08:41:39;27.70;96.00
2721;DHT22;1368;49.484;11.112;2023-07-31T08:44:05;28.50;95.50
2721;DHT22;1368;49.484;11.112;2023-07-31T08:46:31;28.70;93.30
2721;DHT22;1368;49.484;11.112;2023-07-31T08:48:58;28.70;93.40
2721;DHT22;1368;49.484;11.112;2023-07-31T08:51:24;28.70;93.00
2721;DHT22;1368;49.484;11.112;2023-07-31T08:53:49;28.40;92.20
2721;DHT22;1368;49.484;11.112;2023-07-31T08:56:15;28.30;93.30
2721;DHT22;1368;49.484;11.112;2023-07-31T08:58:43;28.80;94.00
2721;DHT22;1368;49.484;11.112;2023-07-31T09:01:09;29.30;92.40
2721;DHT22;1368;49.484;11.112;2023-07-31T09:03:36;29.40;91.30
2721;DHT22;1368;49.484;11.112;2023-07-31T09:06:04;29.70;91.80
2721;DHT22;1368;49.484;11.112;2023-07-31T09:08:31;30.00;90.40
2721;DHT22;1368;49.484;11.112;2023-07-31T09:11:01;30.70;89.40
2721;DHT22;1368;49.484;11.112;2023-07-31T09:13:31;31.10;87.80
2721;DHT22;1368;49.484;11.112;2023-07-31T09:15:57;31.80;86.00
2721;DHT22;1368;49.484;11.112;2023-07-31T09:18:22;32.30;85.80
2721;DHT22;1368;49.484;11.112;2023-07-31T09:21:09;32.80;82.80
2721;DHT22;1368;49.484;11.112;2023-07-31T09:23:43;32.90;81.20
2721;DHT22;1368;49.484;11.112;2023-07-31T09:26:08;32.80;80.60
2721;DHT22;1368;49.484;11.112;2023-07-31T09:28:34;32.80;80.80
2721;DHT22;1368;49.484;11.112;2023-07-31T09:30:59;32.90;79.60
2721;DHT22;1368;49.484;11.112;2023-07-31T09:33:25;33.20;78.10
2721;DHT22;1368;49.484;11.112;2023-07-31T09:35:50;32.80;76.30
2721;DHT22;1368;49.484;11.112;2023-07-31T09:38:16;32.60;77.40
2721;DHT22;1368;49.484;11.112;2023-07-31T09:40:47;32.60;78.50
2721;DHT22;1368;49.484;11.112;2023-07-31T09:43:22;32.30;77.80
2721;DHT22;1368;49.484;11.112;2023-07-31T09:45:48;32.10;78.30
2721;DHT22;1368;49.484;11.112;2023-07-31T09:48:18;31.90;78.00
2721;DHT22;1368;49.484;11.112;2023-07-31T09:50:45;31.30;79.70
2721;DHT22;1368;49.484;11.112;2023-07-31T09:53:11;31.00;78.80
2721;DHT22;1368;49.484;11.112;2023-07-31T09:55:38;30.80;81.30
2721;DHT22;1368;49.484;11.112;2023-07-31T09:58:05;30.50;80.90
2721;DHT22;1368;49.484;11.112;2023-07-31T10:00:31;30.60;84.70
2721;DHT22;1368;49.484;11.112;2023-07-31T10:02:59;30.40;81.40
2721;DHT22;1368;49.484;11.112;2023-07-31T10:05:31;30.40;81.00
2721;DHT22;1368;49.484;11.112;2023-07-31T10:07:58;30.20;81.10
2721;DHT22;1368;49.484;11.112;2023-07-31T10:10:25;30.30;82.60
2721;DHT22;1368;49.484;11.112;2023-07-31T10:12:52;30.30;85.10
2721;DHT22;1368;49.484;11.112;2023-07-31T10:15:19;30.10;82.80
2721;DHT22;1368;49.484;11.112;2023-07-31T10:17:49;29.90;83.00
2721;DHT22;1368;49.484;11.112;2023-07-31T10:20:16;30.00;83.50
2721;DHT22;1368;49.484;11.112;2023-07-31T10:22:45;29.90;81.80
2721;DHT22;1368;49.484;11.112;2023-07-31T10:25:12;29.90;84.40
2721;DHT22;1368;49.484;11.112;2023-07-31T10:27:39;29.90;84.10
2721;DHT22;1368;49.484;11.112;2023-07-31T10:30:08;29.70;83.30
2721;DHT22;1368;49.484;11.112;2023-07-31T10:32:34;29.80;82.00
2721;DHT22;1368;49.484;11.112;2023-07-31T10:35:02;29.50;82.30
2721;DHT22;1368;49.484;11.112;2023-07-31T10:37:36;29.00;83.30
2721;DHT22;1368;49.484;11.112;2023-07-31T10:42:32;29.20;86.10
2721;DHT22;1368;49.484;11.112;2023-07-31T10:45:04;29.30;83.90
2721;DHT22;1368;49.484;11.112;2023-07-31T10:47:30;29.60;83.60
2721;DHT22;1368;49.484;11.112;2023-07-31T10:52:37;29.90;82.60
2721;DHT22;1368;49.484;11.112;2023-07-31T10:55:41;29.50;82.60
2721;DHT22;1368;49.484;11.112;2023-07-31T10:58:09;29.60;82.40
2721;DHT22;1368;49.484;11.112;2023-07-31T11:00:41;30.10;82.90
2721;DHT22;1368;49.484;11.112;2023-07-31T11:03:13;30.00;81.90
2721;DHT22;1368;49.484;11.112;2023-07-31T11:05:49;30.30;82.90
2721;DHT22;1368;49.484;11.112;2023-07-31T11:08:26;30.70;80.20
2721;DHT22;1368;49.484;11.112;2023-07-31T11:13:31;30.30;82.50
2721;DHT22;1368;49.484;11.112;2023-07-31T11:15:56;30.40;80.40
2721;DHT22;1368;49.484;11.112;2023-07-31T11:18:22;29.90;81.40
2721;DHT22;1368;49.484;11.112;2023-07-31T11:20:48;29.60;80.60
2721;DHT22;1368;49.484;11.112;2023-07-31T11:23:16;29.20;82.40
2721;DHT22;1368;49.484;11.112;2023-07-31T11:25:43;28.60;81.50
2721;DHT22;1368;49.484;11.112;2023-07-31T11:28:11;28.10;83.60
2721;DHT22;1368;49.484;11.112;2023-07-31T11:30:38;28.00;82.20
2721;DHT22;1368;49.484;11.112;2023-07-31T11:33:05;27.50;84.50
2721;DHT22;1368;49.484;11.112;2023-07-31T11:35:35;28.00;84.50
2721;DHT22;1368;49.484;11.112;2023-07-31T11:38:02;27.40;84.70
2721;DHT22;1368;49.484;11.112;2023-07-31T11:40:28;27.10;86.10
2721;DHT22;1368;49.484;11.112;2023-07-31T11:43:04;27.30;85.60
2721;DHT22;1368;49.484;11.112;2023-07-31T11:45:30;26.80;88.60
2721;DHT22;1368;49.484;11.112;2023-07-31T11:47:56;26.60;87.00
2721;DHT22;1368;49.484;11.112;2023-07-31T11:50:22;27.10;88.60
2721;DHT22;1368;49.484;11.112;2023-07-31T11:52:54;26.60;87.00
2721;DHT22;1368;49.484;11.112;2023-07-31T11:55:21;26.50;88.30
2721;DHT22;1368;49.484;11.112;2023-07-31T11:57:47;26.60;87.20
2721;DHT22;1368;49.484;11.112;2023-07-31T12:00:13;27.60;90.00
2721;DHT22;1368;49.484;11.112;2023-07-31T12:02:40;27.40;87.10
2721;DHT22;1368;49.484;11.112;2023-07-31T12:05:12;28.00;88.30
2721;DHT22;1368;49.484;11.112;2023-07-31T12:07:49;27.70;87.70
2721;DHT22;1368;49.484;11.112;2023-07-31T12:10:28;27.90;87.10
2721;DHT22;1368;49.484;11.112;2023-07-31T12:15:34;27.60;87.10
2721;DHT22;1368;49.484;11.112;2023-07-31T12:18:00;27.20;86.90
2721;DHT22;1368;49.484;11.112;2023-07-31T12:20:30;27.30;86.40
2721;DHT22;1368;49.484;11.112;2023-07-31T12:22:56;27.20;87.50
2721;DHT22;1368;49.484;11.112;2023-07-31T12:25:22;26.80;87.10
2721;DHT22;1368;49.484;11.112;2023-07-31T12:27:50;27.10;89.40
2721;DHT22;1368;49.484;11.112;2023-07-31T12:30:32;27.30;88.10
2721;DHT22;1368;49.484;11.112;2023-07-31T12:33:06;27.50;86.80
2721;DHT22;1368;49.484;11.112;2023-07-31T12:35:41;27.70;86.00
2721;DHT22;1368;49.484;11.112;2023-07-31T12:38:07;27.80;87.40
2721;DHT22;1368;49.484;11.112;2023-07-31T12:40:33;28.00;86.40
2721;DHT22;1368;49.484;11.112;2023-07-31T12:43:01;28.20;85.60
2721;DHT22;1368;49.484;11.112;2023-07-31T12:45:28;28.10;86.20
2721;DHT22;1368;49.484;11.112;2023-07-31T12:47:53;27.50;86.70
2721;DHT22;1368;49.484;11.112;2023-07-31T12:50:19;28.00;85.80
2721;DHT22;1368;49.484;11.112;2023-07-31T12:52:44;27.90;86.90
2721;DHT22;1368;49.484;11.112;2023-07-31T12:55:10;27.90;85.40
2721;DHT22;1368;49.484;11.112;2023-07-31T12:57:36;27.70;86.50
2721;DHT22;1368;49.484;11.112;2023-07-31T13:00:02;27.80;88.50
2721;DHT22;1368;49.484;11.112;2023-07-31T13:02:28;28.10;87.00
2721;DHT22;1368;49.484;11.112;2023-07-31T13:04:54;28.20;86.20
2721;DHT22;1368;49.484;11.112;2023-07-31T13:07:19;28.30;85.70
2721;DHT22;1368;49.484;11.112;2023-07-31T13:09:45;28.60;87.10
2721;DHT22;1368;49.484;11.112;2023-07-31T13:12:10;28.80;85.50
2721;DHT22;1368;49.484;11.112;2023-07-31T13:14:36;28.80;84.10
2721;DHT22;1368;49.484;11.112;2023-07-31T13:17:02;28.70;85.80
2721;DHT22;1368;49.484;11.112;2023-07-31T13:19:27;28.70;85.00
2721;DHT22;1368;49.484;11.112;2023-07-31T13:21:53;28.90;84.80
2721;DHT22;1368;49.484;11.112;2023-07-31T13:24:18;28.90;83.70
2721;DHT22;1368;49.484;11.112;2023-07-31T13:26:44;29.00;84.00
2721;DHT22;1368;49.484;11.112;2023-07-31T13:29:09;29.10;83.80
2721;DHT22;1368;49.484;11.112;2023-07-31T13:31:36;28.80;82.20
2721;DHT22;1368;49.484;11.112;2023-07-31T13:34:01;29.00;85.40
2721;DHT22;1368;49.484;11.112;2023-07-31T13:36:27;29.20;84.30
2721;DHT22;1368;49.484;11.112;2023-07-31T13:38:52;29.30;85.30
2721;DHT22;1368;49.484;11.112;2023-07-31T13:41:18;29.30;82.30
2721;DHT22;1368;49.484;11.112;2023-07-31T13:43:43;29.30;83.40
2721;DHT22;1368;49.484;11.112;2023-07-31T13:46:09;29.00;81.20
2721;DHT22;1368;49.484;11.112;2023-07-31T13:48:36;29.00;83.70
2721;DHT22;1368;49.484;11.112;2023-07-31T13:51:02;29.10;81.90
2721;DHT22;1368;49.484;11.112;2023-07-31T13:53:28;28.80;83.40
2721;DHT22;1368;49.484;11.112;2023-07-31T13:55:53;29.00;82.70
2721;DHT22;1368;49.484;11.112;2023-07-31T13:58:20;29.10;83.60
2721;DHT22;1368;49.484;11.112;2023-07-31T14:00:46;29.50;84.00
2721;DHT22;1368;49.484;11.112;2023-07-31T14:03:12;29.20;80.40
2721;DHT22;1368;49.484;11.112;2023-07-31T14:05:37;29.10;81.30
2721;DHT22;1368;49.484;11.112;2023-07-31T14:08:03;28.90;81.10
2721;DHT22;1368;49.484;11.112;2023-07-31T14:10:29;28.70;83.00
2721;DHT22;1368;49.484;11.112;2023-07-31T14:12:54;28.60;84.40
2721;DHT22;1368;49.484;11.112;2023-07-31T14:15:20;28.60;82.80
2721;DHT22;1368;49.484;11.112;2023-07-31T14:17:45;28.60;83.20
2721;DHT22;1368;49.484;11.112;2023-07-31T14:20:11;28.50;83.80
2721;DHT22;1368;49.484;11.112;2023-07-31T14:22:37;28.50;81.50
2721;DHT22;1368;49.484;11.112;2023-07-31T14:25:04;28.40;82.70
2721;DHT22;1368;49.484;11.112;2023-07-31T14:27:29;28.00;81.70
2721;DHT22;1368;49.484;11.112;2023-07-31T14:29:55;28.00;84.30
2721;DHT22;1368;49.484;11.112;2023-07-31T14:32:21;27.80;84.30
2721;DHT22;1368;49.484;11.112;2023-07-31T14:34:48;27.50;83.80
2721;DHT22;1368;49.484;11.112;2023-07-31T14:37:14;27.40;84.10
2721;DHT22;1368;49.484;11.112;2023-07-31T14:39:40;27.40;82.70
2721;DHT22;1368;49.484;11.112;2023-07-31T14:42:05;27.10;84.00
2721;DHT22;1368;49.484;11.112;2023-07-31T14:44:31;27.30;84.10
2721;DHT22;1368;49.484;11.112;2023-07-31T14:46:56;27.30;84.20
2721;DHT22;1368;49.484;11.112;2023-07-31T14:49:22;27.30;83.40
2721;DHT22;1368;49.484;11.112;2023-07-31T14:51:47;27.40;84.20
2721;DHT22;1368;49.484;11.112;2023-07-31T14:54:13;27.20;83.90
2721;DHT22;1368;49.484;11.112;2023-07-31T14:56:38;27.10;84.60
2721;DHT22;1368;49.484;11.112;2023-07-31T14:59:04;26.90;84.80
2721;DHT22;1368;49.484;11.112;2023-07-31T15:01:29;27.40;85.60
2721;DHT22;1368;49.484;11.112;2023-07-31T15:03:55;26.70;84.80
2721;DHT22;1368;49.484;11.112;2023-07-31T15:06:21;26.50;85.80
2721;DHT22;1368;49.484;11.112;2023-07-31T15:08:46;26.70;86.40
2721;DHT22;1368;49.484;11.112;2023-07-31T15:11:12;26.80;86.90
2721;DHT22;1368;49.484;11.112;2023-07-31T15:13:37;26.90;86.90
2721;DHT22;1368;49.484;11.112;2023-07-31T15:16:03;26.20;85.70
2721;DHT22;1368;49.484;11.112;2023-07-31T15:18:28;26.00;87.30
2721;DHT22;1368;49.484;11.112;2023-07-31T15:20:54;26.00;87.10
2721;DHT22;1368;49.484;11.112;2023-07-31T15:23:19;25.90;88.30
2721;DHT22;1368;49.484;11.112;2023-07-31T15:25:45;26.00;88.40
2721;DHT22;1368;49.484;11.112;2023-07-31T15:28:11;25.90;88.60
2721;DHT22;1368;49.484;11.112;2023-07-31T15:30:37;25.80;88.00
2721;DHT22;1368;49.484;11.112;2023-07-31T15:33:03;25.60;88.80
2721;DHT22;1368;49.484;11.112;2023-07-31T15:35:28;26.10;89.90
2721;DHT22;1368;49.484;11.112;2023-07-31T15:37:54;25.70;89.90
2721;DHT22;1368;49.484;11.112;2023-07-31T15:40:19;25.80;90.40
2721;DHT22;1368;49.484;11.112;2023-07-31T15:42:45;25.80;89.10
2721;DHT22;1368;49.484;11.112;2023-07-31T15:45:11;25.70;89.50
2721;DHT22;1368;49.484;11.112;2023-07-31T15:47:36;25.60;90.40
2721;DHT22;1368;49.484;11.112;2023-07-31T15:50:02;25.60;90.20
2721;DHT22;1368;49.484;11.112;2023-07-31T15:52:28;25.60;90.40
2721;DHT22;1368;49.484;11.112;2023-07-31T15:54:53;26.10;90.60
2721;DHT22;1368;49.484;11.112;2023-07-31T15:57:19;26.00;90.10
2721;DHT22;1368;49.484;11.112;2023-07-31T15:59:44;26.00;90.20